sensor_id;sensor_type;location;lat;lon;timestamp;temperature;humidity
11599;DHT22;5855;48.840;9.188;2023-02-08T00:00:58;-3.50;99.90
11599;DHT22;5855;48.840;9.188;2023-02-08T00:03:25;-3.50;99.90
11599;DHT22;5855;48.840;9.188;2023-02-08T00:05:52;-3.50;99.90
11599;DHT22;5855;48.840;9.188;2023-02-08T00:08:19;-3.50;99.90
11599;DHT22;5855;48.840;9.188;2023-02-08T00:10:48;-3.50;99.90
11599;DHT22;5855;48.840;9.188;2023-02-08T00:13:15;-3.50;99.90
11599;DHT22;5855;48.840;9.188;2023-02-08T00:15:44;-3.60;99.90
11599;DHT22;5855;48.840;9.188;2023-02-08T00:18:11;-3.60;99.90
11599;DHT22;5855;48.840;9.188;2023-02-08T00:20:40;-3.70;99.90
11599;DHT22;5855;48.840;9.188;2023-02-08T00:23:07;-3.70;99.90
11599;DHT22;5855;48.840;9.188;2023-02-08T00:25:34;-3.70;99.90
11599;DHT22;5855;48.840;9.188;2023-02-08T00:28:02;-3.80;99.90
11599;DHT22;5855;48.840;9.188;2023-02-08T00:30:29;-3.80;99.90
11599;DHT22;5855;48.840;9.188;2023-02-08T00:32:56;-3.80;99.90
11599;DHT22;5855;48.840;9.188;2023-02-08T00:35:23;-3.80;99.90
11599;DHT22;5855;48.840;9.188;2023-02-08T00:37:50;-3.80;99.90
11599;DHT22;5855;48.840;9.188;2023-02-08T00:40:17;-3.80;99.90
11599;DHT22;5855;48.840;9.188;2023-02-08T00:42:44;-3.80;99.90
11599;DHT22;5855;48.840;9.188;2023-02-08T00:45:12;-3.80;99.90
11599;DHT22;5855;48.840;9.188;2023-02-08T00:47:39;-3.90;99.90
11599;DHT22;5855;48.840;9.188;2023-02-08T00:50:07;-3.90;99.90
11599;DHT22;5855;48.840;9.188;2023-02-08T00:52:34;-4.00;99.90
11599;DHT22;5855;48.840;9.188;2023-02-08T00:55:00;-4.00;99.90
11599;DHT22;5855;48.840;9.188;2023-02-08T00:57:27;-4.10;99.90
11599;DHT22;5855;48.840;9.188;2023-02-08T00:59:54;-4.10;99.90
11599;DHT22;5855;48.840;9.188;2023-02-08T01:02:22;-4.10;99.90
11599;DHT22;5855;48.840;9.188;2023-02-08T01:04:49;-4.10;99.90
11599;DHT22;5855;48.840;9.188;2023-02-08T01:07:16;-4.10;99.90
11599;DHT22;5855;48.840;9.188;2023-02-08T01:09:43;-4.20;99.90
11599;DHT22;5855;48.840;9.188;2023-02-08T01:12:10;-4.20;99.90
11599;DHT22;5855;48.840;9.188;2023-02-08T01:14:37;-4.20;99.90
11599;DHT22;5855;48.840;9.188;2023-02-08T01:17:04;-4.20;99.90
11599;DHT22;5855;48.840;9.188;2023-02-08T01:19:32;-4.20;99.90
11599;DHT22;5855;48.840;9.188;2023-02-08T01:21:59;-4.30;99.90
11599;DHT22;5855;48.840;9.188;2023-02-08T01:24:26;-4.30;99.90
11599;DHT22;5855;48.840;9.188;2023-02-08T01:26:53;-4.30;99.90
11599;DHT22;5855;48.840;9.188;2023-02-08T01:29:19;-4.40;99.90
11599;DHT22;5855;48.840;9.188;2023-02-08T01:31:46;-4.40;99.90
11599;DHT22;5855;48.840;9.188;2023-02-08T01:34:13;-4.50;99.90
11599;DHT22;5855;48.840;9.188;2023-02-08T01:36:41;-4.50;99.90
11599;DHT22;5855;48.840;9.188;2023-02-08T01:39:10;-4.60;99.90
11599;DHT22;5855;48.840;9.188;2023-02-08T01:41:39;-4.60;99.90
11599;DHT22;5855;48.840;9.188;2023-02-08T01:47:13;-4.70;99.90
11599;DHT22;5855;48.840;9.188;2023-02-08T01:49:40;-4.70;99.90
11599;DHT22;5855;48.840;9.188;2023-02-08T01:52:11;-4.70;99.90
11599;DHT22;5855;48.840;9.188;2023-02-08T01:54:42;-4.70;99.90
11599;DHT22;5855;48.840;9.188;2023-02-08T01:57:10;-4.70;99.90
11599;DHT22;5855;48.840;9.188;2023-02-08T01:59:39;-4.70;99.90
11599;DHT22;5855;48.840;9.188;2023-02-08T02:02:10;-4.80;99.90
11599;DHT22;5855;48.840;9.188;2023-02-08T02:04:38;-4.80;99.90
11599;DHT22;5855;48.840;9.188;2023-02-08T02:07:05;-4.70;99.90
11599;DHT22;5855;48.840;9.188;2023-02-08T02:09:39;-4.70;99.90
11599;DHT22;5855;48.840;9.188;2023-02-08T02:12:08;-4.70;99.90
11599;DHT22;5855;48.840;9.188;2023-02-08T02:14:36;-4.80;99.90
11599;DHT22;5855;48.840;9.188;2023-02-08T02:17:03;-4.80;99.90
11599;DHT22;5855;48.840;9.188;2023-02-08T02:19:38;-4.90;99.90
11599;DHT22;5855;48.840;9.188;2023-02-08T02:22:29;-4.90;99.90
11599;DHT22;5855;48.840;9.188;2023-02-08T02:25:34;-5.00;99.90
11599;DHT22;5855;48.840;9.188;2023-02-08T02:28:41;-5.10;99.90
11599;DHT22;5855;48.840;9.188;2023-02-08T02:34:17;-5.00;99.90
11599;DHT22;5855;48.840;9.188;2023-02-08T02:36:54;-5.10;99.90
11599;DHT22;5855;48.840;9.188;2023-02-08T02:39:34;-5.00;99.90
11599;DHT22;5855;48.840;9.188;2023-02-08T02:42:11;-5.00;99.90
11599;DHT22;5855;48.840;9.188;2023-02-08T02:45:03;-4.90;99.90
11599;DHT22;5855;48.840;9.188;2023-02-08T02:47:37;-4.90;99.90
11599;DHT22;5855;48.840;9.188;2023-02-08T02:50:11;-5.00;99.90
11599;DHT22;5855;48.840;9.188;2023-02-08T02:52:44;-5.00;99.90
11599;DHT22;5855;48.840;9.188;2023-02-08T02:55:15;-5.10;99.90
11599;DHT22;5855;48.840;9.188;2023-02-08T02:57:44;-5.10;99.90
11599;DHT22;5855;48.840;9.188;2023-02-08T03:00:19;-5.20;99.90
11599;DHT22;5855;48.840;9.188;2023-02-08T03:02:48;-5.30;99.90
11599;DHT22;5855;48.840;9.188;2023-02-08T03:05:15;-5.30;99.90
11599;DHT22;5855;48.840;9.188;2023-02-08T03:07:53;-5.40;99.90
11599;DHT22;5855;48.840;9.188;2023-02-08T03:10:47;-5.40;99.90
11599;DHT22;5855;48.840;9.188;2023-02-08T03:13:24;-5.40;99.90
11599;DHT22;5855;48.840;9.188;2023-02-08T03:16:00;-5.50;99.90
11599;DHT22;5855;48.840;9.188;2023-02-08T03:18:35;-5.50;99.90
11599;DHT22;5855;48.840;9.188;2023-02-08T03:21:09;-5.60;99.90
11599;DHT22;5855;48.840;9.188;2023-02-08T03:23:40;-5.60;99.90
11599;DHT22;5855;48.840;9.188;2023-02-08T03:26:15;-5.70;99.90
11599;DHT22;5855;48.840;9.188;2023-02-08T03:28:50;-5.80;99.90
11599;DHT22;5855;48.840;9.188;2023-02-08T03:31:25;-5.80;99.90
11599;DHT22;5855;48.840;9.188;2023-02-08T03:33:57;-5.80;99.90
11599;DHT22;5855;48.840;9.188;2023-02-08T03:36:30;-5.80;99.90
11599;DHT22;5855;48.840;9.188;2023-02-08T03:38:59;-5.90;99.90
11599;DHT22;5855;48.840;9.188;2023-02-08T03:41:30;-5.80;99.90
11599;DHT22;5855;48.840;9.188;2023-02-08T03:44:00;-5.90;99.90
11599;DHT22;5855;48.840;9.188;2023-02-08T03:46:31;-5.90;99.90
11599;DHT22;5855;48.840;9.188;2023-02-08T03:49:04;-5.90;99.90
11599;DHT22;5855;48.840;9.188;2023-02-08T03:51:34;-5.90;99.90
11599;DHT22;5855;48.840;9.188;2023-02-08T03:54:08;-5.80;99.90
11599;DHT22;5855;48.840;9.188;2023-02-08T03:56:39;-5.70;99.90
11599;DHT22;5855;48.840;9.188;2023-02-08T03:59:12;-5.60;99.90
11599;DHT22;5855;48.840;9.188;2023-02-08T04:01:44;-5.60;99.90
11599;DHT22;5855;48.840;9.188;2023-02-08T04:04:14;-5.60;99.90
11599;DHT22;5855;48.840;9.188;2023-02-08T04:06:42;-5.70;99.90
11599;DHT22;5855;48.840;9.188;2023-02-08T04:09:09;-5.80;99.90
11599;DHT22;5855;48.840;9.188;2023-02-08T04:11:36;-5.90;99.90
11599;DHT22;5855;48.840;9.188;2023-02-08T04:14:03;-6.00;99.90
11599;DHT22;5855;48.840;9.188;2023-02-08T04:16:29;-6.00;99.90
11599;DHT22;5855;48.840;9.188;2023-02-08T04:18:56;-6.00;99.90
11599;DHT22;5855;48.840;9.188;2023-02-08T04:21:24;-6.10;99.90
11599;DHT22;5855;48.840;9.188;2023-02-08T04:23:51;-6.10;99.90
11599;DHT22;5855;48.840;9.188;2023-02-08T04:26:18;-6.10;99.90
11599;DHT22;5855;48.840;9.188;2023-02-08T04:28:45;-6.20;99.90
11599;DHT22;5855;48.840;9.188;2023-02-08T04:31:12;-6.10;99.90
11599;DHT22;5855;48.840;9.188;2023-02-08T04:33:39;-6.00;99.90
11599;DHT22;5855;48.840;9.188;2023-02-08T04:36:06;-6.00;99.90
11599;DHT22;5855;48.840;9.188;2023-02-08T04:38:35;-6.00;99.90
11599;DHT22;5855;48.840;9.188;2023-02-08T04:41:01;-6.00;99.90
11599;DHT22;5855;48.840;9.188;2023-02-08T04:43:28;-6.00;99.90
11599;DHT22;5855;48.840;9.188;2023-02-08T04:45:55;-5.90;99.90
11599;DHT22;5855;48.840;9.188;2023-02-08T04:48:22;-5.80;99.90
11599;DHT22;5855;48.840;9.188;2023-02-08T04:50:49;-5.80;99.90
11599;DHT22;5855;48.840;9.188;2023-02-08T04:53:15;-5.80;99.90
11599;DHT22;5855;48.840;9.188;2023-02-08T04:55:43;-5.90;99.90
11599;DHT22;5855;48.840;9.188;2023-02-08T04:58:10;-6.00;99.90
11599;DHT22;5855;48.840;9.188;2023-02-08T05:00:37;-5.90;99.90
11599;DHT22;5855;48.840;9.188;2023-02-08T05:03:04;-5.90;99.90
11599;DHT22;5855;48.840;9.188;2023-02-08T05:05:30;-5.90;99.90
11599;DHT22;5855;48.840;9.188;2023-02-08T05:07:58;-5.90;99.90
11599;DHT22;5855;48.840;9.188;2023-02-08T05:10:24;-5.90;99.90
11599;DHT22;5855;48.840;9.188;2023-02-08T05:12:53;-5.80;99.90
11599;DHT22;5855;48.840;9.188;2023-02-08T05:15:20;-5.60;99.90
11599;DHT22;5855;48.840;9.188;2023-02-08T05:17:47;-5.50;99.90
11599;DHT22;5855;48.840;9.188;2023-02-08T05:20:14;-5.50;99.90
11599;DHT22;5855;48.840;9.188;2023-02-08T05:22:41;-5.50;99.90
11599;DHT22;5855;48.840;9.188;2023-02-08T05:25:08;-5.60;99.90
11599;DHT22;5855;48.840;9.188;2023-02-08T05:27:35;-5.70;99.90
11599;DHT22;5855;48.840;9.188;2023-02-08T05:30:05;-5.80;99.90
11599;DHT22;5855;48.840;9.188;2023-02-08T05:32:32;-5.70;99.90
11599;DHT22;5855;48.840;9.188;2023-02-08T05:34:59;-5.70;99.90
11599;DHT22;5855;48.840;9.188;2023-02-08T05:37:26;-5.70;99.90
11599;DHT22;5855;48.840;9.188;2023-02-08T05:39:53;-5.80;99.90
11599;DHT22;5855;48.840;9.188;2023-02-08T05:42:19;-5.70;99.90
11599;DHT22;5855;48.840;9.188;2023-02-08T05:44:46;-5.60;99.90
11599;DHT22;5855;48.840;9.188;2023-02-08T05:47:14;-5.60;99.90
11599;DHT22;5855;48.840;9.188;2023-02-08T05:49:41;-5.60;99.90
11599;DHT22;5855;48.840;9.188;2023-02-08T05:52:08;-5.70;99.90
11599;DHT22;5855;48.840;9.188;2023-02-08T05:54:35;-5.80;99.90
11599;DHT22;5855;48.840;9.188;2023-02-08T05:57:02;-5.90;99.90
11599;DHT22;5855;48.840;9.188;2023-02-08T05:59:29;-6.00;99.90
11599;DHT22;5855;48.840;9.188;2023-02-08T06:01:55;-6.00;99.90
11599;DHT22;5855;48.840;9.188;2023-02-08T06:04:23;-6.10;99.90
11599;DHT22;5855;48.840;9.188;2023-02-08T06:06:50;-6.10;99.90
11599;DHT22;5855;48.840;9.188;2023-02-08T06:09:17;-6.00;99.90
11599;DHT22;5855;48.840;9.188;2023-02-08T06:11:44;-6.00;99.90
11599;DHT22;5855;48.840;9.188;2023-02-08T06:14:10;-6.00;99.90
11599;DHT22;5855;48.840;9.188;2023-02-08T06:16:37;-5.90;99.90
11599;DHT22;5855;48.840;9.188;2023-02-08T06:19:04;-6.00;99.90
11599;DHT22;5855;48.840;9.188;2023-02-08T06:21:32;-6.00;99.90
11599;DHT22;5855;48.840;9.188;2023-02-08T06:23:59;-6.00;99.90
11599;DHT22;5855;48.840;9.188;2023-02-08T06:26:26;-5.90;99.90
11599;DHT22;5855;48.840;9.188;2023-02-08T06:28:53;-5.90;99.90
11599;DHT22;5855;48.840;9.188;2023-02-08T06:31:19;-5.80;99.90
11599;DHT22;5855;48.840;9.188;2023-02-08T06:33:46;-5.80;99.90
11599;DHT22;5855;48.840;9.188;2023-02-08T06:36:14;-5.70;99.90
11599;DHT22;5855;48.840;9.188;2023-02-08T06:38:43;-5.70;99.90
11599;DHT22;5855;48.840;9.188;2023-02-08T06:41:10;-5.80;99.90
11599;DHT22;5855;48.840;9.188;2023-02-08T06:43:36;-5.80;99.90
11599;DHT22;5855;48.840;9.188;2023-02-08T06:46:05;-5.80;99.90
11599;DHT22;5855;48.840;9.188;2023-02-08T06:48:33;-5.90;99.90
11599;DHT22;5855;48.840;9.188;2023-02-08T06:51:00;-5.90;99.90
11599;DHT22;5855;48.840;9.188;2023-02-08T06:53:26;-5.70;99.90
11599;DHT22;5855;48.840;9.188;2023-02-08T06:55:55;-5.70;99.90
11599;DHT22;5855;48.840;9.188;2023-02-08T06:58:22;-5.70;99.90
11599;DHT22;5855;48.840;9.188;2023-02-08T07:00:49;-5.60;99.90
11599;DHT22;5855;48.840;9.188;2023-02-08T07:03:15;-5.40;99.90
11599;DHT22;5855;48.840;9.188;2023-02-08T07:05:43;-5.30;99.90
11599;DHT22;5855;48.840;9.188;2023-02-08T07:08:10;-5.20;99.90
11599;DHT22;5855;48.840;9.188;2023-02-08T07:10:37;-5.20;99.90
11599;DHT22;5855;48.840;9.188;2023-02-08T07:13:06;-5.30;99.90
11599;DHT22;5855;48.840;9.188;2023-02-08T07:15:33;-5.30;99.90
11599;DHT22;5855;48.840;9.188;2023-02-08T07:18:00;-5.30;99.90
11599;DHT22;5855;48.840;9.188;2023-02-08T07:20:28;-5.30;99.90
11599;DHT22;5855;48.840;9.188;2023-02-08T07:22:55;-5.30;99.90
11599;DHT22;5855;48.840;9.188;2023-02-08T07:25:21;-5.40;99.90
11599;DHT22;5855;48.840;9.188;2023-02-08T07:27:48;-5.30;99.90
11599;DHT22;5855;48.840;9.188;2023-02-08T07:30:17;-5.30;99.90
11599;DHT22;5855;48.840;9.188;2023-02-08T07:32:44;-5.30;99.90
11599;DHT22;5855;48.840;9.188;2023-02-08T07:35:10;-5.20;99.90
11599;DHT22;5855;48.840;9.188;2023-02-08T07:37:37;-5.10;99.90
11599;DHT22;5855;48.840;9.188;2023-02-08T07:40:05;-5.00;99.90
11599;DHT22;5855;48.840;9.188;2023-02-08T07:42:32;-4.90;99.90
11599;DHT22;5855;48.840;9.188;2023-02-08T07:44:59;-4.80;99.90
11599;DHT22;5855;48.840;9.188;2023-02-08T07:47:27;-4.70;99.90
11599;DHT22;5855;48.840;9.188;2023-02-08T07:49:54;-4.50;99.90
11599;DHT22;5855;48.840;9.188;2023-02-08T07:52:21;-4.30;99.90
11599;DHT22;5855;48.840;9.188;2023-02-08T07:54:47;-4.30;99.90
11599;DHT22;5855;48.840;9.188;2023-02-08T07:57:14;-4.20;99.90
11599;DHT22;5855;48.840;9.188;2023-02-08T07:59:45;-4.10;99.90
11599;DHT22;5855;48.840;9.188;2023-02-08T08:02:13;-3.90;99.90
11599;DHT22;5855;48.840;9.188;2023-02-08T08:04:42;-3.80;99.90
11599;DHT22;5855;48.840;9.188;2023-02-08T08:07:08;-3.70;99.90
11599;DHT22;5855;48.840;9.188;2023-02-08T08:09:35;-3.60;99.90
11599;DHT22;5855;48.840;9.188;2023-02-08T08:12:02;-3.50;99.90
11599;DHT22;5855;48.840;9.188;2023-02-08T08:14:30;-3.40;99.90
11599;DHT22;5855;48.840;9.188;2023-02-08T08:16:56;-3.20;99.90
11599;DHT22;5855;48.840;9.188;2023-02-08T08:19:23;-3.00;99.90
11599;DHT22;5855;48.840;9.188;2023-02-08T08:21:51;-2.80;99.90
11599;DHT22;5855;48.840;9.188;2023-02-08T08:24:18;-2.70;99.90
11599;DHT22;5855;48.840;9.188;2023-02-08T08:26:45;-2.50;99.90
11599;DHT22;5855;48.840;9.188;2023-02-08T08:29:12;-2.30;99.90
11599;DHT22;5855;48.840;9.188;2023-02-08T08:31:41;-2.20;99.90
11599;DHT22;5855;48.840;9.188;2023-02-08T08:34:07;-2.00;99.90
11599;DHT22;5855;48.840;9.188;2023-02-08T08:36:34;-1.90;99.90
11599;DHT22;5855;48.840;9.188;2023-02-08T08:39:03;-1.70;99.90
11599;DHT22;5855;48.840;9.188;2023-02-08T08:41:30;-1.50;99.90
11599;DHT22;5855;48.840;9.188;2023-02-08T08:43:56;-1.30;99.90
11599;DHT22;5855;48.840;9.188;2023-02-08T08:46:23;-1.10;99.90
11599;DHT22;5855;48.840;9.188;2023-02-08T08:48:50;-0.90;99.90
11599;DHT22;5855;48.840;9.188;2023-02-08T08:51:17;-0.70;99.90
11599;DHT22;5855;48.840;9.188;2023-02-08T08:53:44;-0.50;99.90
11599;DHT22;5855;48.840;9.188;2023-02-08T08:56:12;-0.30;99.90
11599;DHT22;5855;48.840;9.188;2023-02-08T08:58:39;-0.10;99.90
11599;DHT22;5855;48.840;9.188;2023-02-08T09:01:07;0.20;99.90
11599;DHT22;5855;48.840;9.188;2023-02-08T09:03:34;0.40;99.90
11599;DHT22;5855;48.840;9.188;2023-02-08T09:06:01;0.60;99.90
11599;DHT22;5855;48.840;9.188;2023-02-08T09:08:28;0.80;99.90
11599;DHT22;5855;48.840;9.188;2023-02-08T09:10:55;1.00;99.90
11599;DHT22;5855;48.840;9.188;2023-02-08T09:13:23;1.20;99.90
11599;DHT22;5855;48.840;9.188;2023-02-08T09:15:50;1.40;99.90
11599;DHT22;5855;48.840;9.188;2023-02-08T09:18:17;1.50;99.90
11599;DHT22;5855;48.840;9.188;2023-02-08T09:20:43;1.60;99.90
11599;DHT22;5855;48.840;9.188;2023-02-08T09:23:10;1.80;99.90
11599;DHT22;5855;48.840;9.188;2023-02-08T09:25:39;2.00;99.90
11599;DHT22;5855;48.840;9.188;2023-02-08T09:28:05;2.10;99.90
11599;DHT22;5855;48.840;9.188;2023-02-08T09:30:33;2.30;99.90
11599;DHT22;5855;48.840;9.188;2023-02-08T09:33:00;2.40;99.90
11599;DHT22;5855;48.840;9.188;2023-02-08T09:35:27;2.60;99.30
11599;DHT22;5855;48.840;9.188;2023-02-08T09:37:55;2.70;98.90
11599;DHT22;5855;48.840;9.188;2023-02-08T09:40:24;2.90;98.60
11599;DHT22;5855;48.840;9.188;2023-02-08T09:42:58;3.00;99.20
11599;DHT22;5855;48.840;9.188;2023-02-08T09:45:38;3.20;99.20
11599;DHT22;5855;48.840;9.188;2023-02-08T09:48:15;3.40;97.50
11599;DHT22;5855;48.840;9.188;2023-02-08T09:50:47;3.50;96.80
11599;DHT22;5855;48.840;9.188;2023-02-08T09:53:18;3.70;96.30
11599;DHT22;5855;48.840;9.188;2023-02-08T09:55:49;3.80;97.10
11599;DHT22;5855;48.840;9.188;2023-02-08T09:58:20;3.90;96.60
11599;DHT22;5855;48.840;9.188;2023-02-08T10:00:52;4.10;95.80
11599;DHT22;5855;48.840;9.188;2023-02-08T10:03:29;4.30;95.50
11599;DHT22;5855;48.840;9.188;2023-02-08T10:05:57;4.50;94.60
11599;DHT22;5855;48.840;9.188;2023-02-08T10:08:26;4.70;93.70
11599;DHT22;5855;48.840;9.188;2023-02-08T10:10:57;4.90;94.10
11599;DHT22;5855;48.840;9.188;2023-02-08T10:13:45;5.10;93.10
11599;DHT22;5855;48.840;9.188;2023-02-08T10:16:38;5.30;94.10
11599;DHT22;5855;48.840;9.188;2023-02-08T10:19:18;5.70;92.50
11599;DHT22;5855;48.840;9.188;2023-02-08T10:21:57;5.70;92.90
11599;DHT22;5855;48.840;9.188;2023-02-08T10:24:42;6.00;91.80
11599;DHT22;5855;48.840;9.188;2023-02-08T10:27:15;6.10;90.90
11599;DHT22;5855;48.840;9.188;2023-02-08T10:30:03;6.30;90.60
11599;DHT22;5855;48.840;9.188;2023-02-08T10:32:47;6.70;90.80
11599;DHT22;5855;48.840;9.188;2023-02-08T10:35:23;7.00;89.70
11599;DHT22;5855;48.840;9.188;2023-02-08T10:37:50;7.30;86.40
11599;DHT22;5855;48.840;9.188;2023-02-08T10:40:37;7.50;83.90
11599;DHT22;5855;48.840;9.188;2023-02-08T10:43:14;7.70;81.20
11599;DHT22;5855;48.840;9.188;2023-02-08T10:45:48;8.00;79.40
11599;DHT22;5855;48.840;9.188;2023-02-08T10:48:28;8.20;77.50
11599;DHT22;5855;48.840;9.188;2023-02-08T10:50:57;8.60;75.90
11599;DHT22;5855;48.840;9.188;2023-02-08T10:53:23;8.80;73.30
11599;DHT22;5855;48.840;9.188;2023-02-08T10:55:50;9.10;71.90
11599;DHT22;5855;48.840;9.188;2023-02-08T10:58:21;9.40;70.20
11599;DHT22;5855;48.840;9.188;2023-02-08T11:00:50;9.70;67.80
11599;DHT22;5855;48.840;9.188;2023-02-08T11:03:21;10.10;64.80
11599;DHT22;5855;48.840;9.188;2023-02-08T11:05:49;10.80;62.80
11599;DHT22;5855;48.840;9.188;2023-02-08T11:08:16;11.90;58.00
11599;DHT22;5855;48.840;9.188;2023-02-08T11:10:54;13.10;54.90
11599;DHT22;5855;48.840;9.188;2023-02-08T11:13:21;14.90;49.80
11599;DHT22;5855;48.840;9.188;2023-02-08T11:15:51;16.60;43.90
11599;DHT22;5855;48.840;9.188;2023-02-08T11:18:22;18.00;37.50
11599;DHT22;5855;48.840;9.188;2023-02-08T11:20:51;19.10;33.60
11599;DHT22;5855;48.840;9.188;2023-02-08T11:23:22;20.10;29.80
11599;DHT22;5855;48.840;9.188;2023-02-08T11:25:50;21.00;27.50
11599;DHT22;5855;48.840;9.188;2023-02-08T11:28:23;21.50;24.80
11599;DHT22;5855;48.840;9.188;2023-02-08T11:30:55;22.20;24.30
11599;DHT22;5855;48.840;9.188;2023-02-08T11:33:24;22.60;23.20
11599;DHT22;5855;48.840;9.188;2023-02-08T11:35:58;23.20;21.90
11599;DHT22;5855;48.840;9.188;2023-02-08T11:38:26;23.80;20.80
11599;DHT22;5855;48.840;9.188;2023-02-08T11:40:55;23.80;20.30
11599;DHT22;5855;48.840;9.188;2023-02-08T11:43:25;24.00;19.90
11599;DHT22;5855;48.840;9.188;2023-02-08T11:45:54;24.90;19.10
11599;DHT22;5855;48.840;9.188;2023-02-08T11:48:25;25.70;18.30
11599;DHT22;5855;48.840;9.188;2023-02-08T11:51:00;26.30;17.00
11599;DHT22;5855;48.840;9.188;2023-02-08T11:53:30;26.10;15.90
11599;DHT22;5855;48.840;9.188;2023-02-08T11:56:05;26.50;15.40
11599;DHT22;5855;48.840;9.188;2023-02-08T11:58:33;26.40;15.00
11599;DHT22;5855;48.840;9.188;2023-02-08T12:01:02;26.30;14.90
11599;DHT22;5855;48.840;9.188;2023-02-08T12:03:34;26.20;14.60
11599;DHT22;5855;48.840;9.188;2023-02-08T12:06:22;26.20;13.90
11599;DHT22;5855;48.840;9.188;2023-02-08T12:08:58;25.90;14.30
11599;DHT22;5855;48.840;9.188;2023-02-08T12:11:32;26.30;14.40
11599;DHT22;5855;48.840;9.188;2023-02-08T12:14:15;26.50;14.10
11599;DHT22;5855;48.840;9.188;2023-02-08T12:16:52;27.50;13.30
11599;DHT22;5855;48.840;9.188;2023-02-08T12:22:26;27.10;12.60
11599;DHT22;5855;48.840;9.188;2023-02-08T12:25:03;27.00;13.50
11599;DHT22;5855;48.840;9.188;2023-02-08T12:27:43;28.10;12.80
11599;DHT22;5855;48.840;9.188;2023-02-08T12:30:20;28.80;12.00
11599;DHT22;5855;48.840;9.188;2023-02-08T12:35:58;29.90;11.30
11599;DHT22;5855;48.840;9.188;2023-02-08T12:38:37;30.00;10.30
11599;DHT22;5855;48.840;9.188;2023-02-08T12:41:29;29.50;10.10
11599;DHT22;5855;48.840;9.188;2023-02-08T12:44:04;28.90;9.90
11599;DHT22;5855;48.840;9.188;2023-02-08T12:46:47;28.20;10.60
11599;DHT22;5855;48.840;9.188;2023-02-08T12:52:30;29.20;11.00
11599;DHT22;5855;48.840;9.188;2023-02-08T12:55:02;29.70;10.60
11599;DHT22;5855;48.840;9.188;2023-02-08T12:57:33;30.50;9.90
11599;DHT22;5855;48.840;9.188;2023-02-08T13:00:03;30.50;9.80
11599;DHT22;5855;48.840;9.188;2023-02-08T13:02:40;31.70;9.40
11599;DHT22;5855;48.840;9.188;2023-02-08T13:05:15;32.30;9.00
11599;DHT22;5855;48.840;9.188;2023-02-08T13:07:46;32.40;8.70
11599;DHT22;5855;48.840;9.188;2023-02-08T13:10:20;31.90;8.40
11599;DHT22;5855;48.840;9.188;2023-02-08T13:12:53;31.50;8.20
11599;DHT22;5855;48.840;9.188;2023-02-08T13:15:23;31.60;8.30
11599;DHT22;5855;48.840;9.188;2023-02-08T13:17:53;31.60;8.20
11599;DHT22;5855;48.840;9.188;2023-02-08T13:20:30;31.50;8.10
11599;DHT22;5855;48.840;9.188;2023-02-08T13:23:02;31.70;8.20
11599;DHT22;5855;48.840;9.188;2023-02-08T13:25:31;31.60;8.10
11599;DHT22;5855;48.840;9.188;2023-02-08T13:28:00;31.90;7.90
11599;DHT22;5855;48.840;9.188;2023-02-08T13:30:27;31.60;7.30
11599;DHT22;5855;48.840;9.188;2023-02-08T13:32:55;31.60;7.80
11599;DHT22;5855;48.840;9.188;2023-02-08T13:35:25;31.70;7.30
11599;DHT22;5855;48.840;9.188;2023-02-08T13:37:57;31.50;7.50
11599;DHT22;5855;48.840;9.188;2023-02-08T13:40:30;30.70;7.30
11599;DHT22;5855;48.840;9.188;2023-02-08T13:42:59;30.10;8.00
11599;DHT22;5855;48.840;9.188;2023-02-08T13:45:29;30.20;8.40
11599;DHT22;5855;48.840;9.188;2023-02-08T13:47:59;30.20;8.60
11599;DHT22;5855;48.840;9.188;2023-02-08T13:50:48;30.80;8.20
11599;DHT22;5855;48.840;9.188;2023-02-08T13:53:16;30.40;7.80
11599;DHT22;5855;48.840;9.188;2023-02-08T13:55:54;30.40;8.00
11599;DHT22;5855;48.840;9.188;2023-02-08T13:58:34;31.40;8.10
11599;DHT22;5855;48.840;9.188;2023-02-08T14:01:13;31.50;7.70
11599;DHT22;5855;48.840;9.188;2023-02-08T14:03:40;31.50;7.30
11599;DHT22;5855;48.840;9.188;2023-02-08T14:06:15;30.90;7.40
11599;DHT22;5855;48.840;9.188;2023-02-08T14:08:54;30.60;7.80
11599;DHT22;5855;48.840;9.188;2023-02-08T14:11:33;30.10;7.70
11599;DHT22;5855;48.840;9.188;2023-02-08T14:14:12;31.00;7.80
11599;DHT22;5855;48.840;9.188;2023-02-08T14:16:42;30.70;7.50
11599;DHT22;5855;48.840;9.188;2023-02-08T14:19:21;30.40;7.80
11599;DHT22;5855;48.840;9.188;2023-02-08T14:21:58;30.50;8.00
11599;DHT22;5855;48.840;9.188;2023-02-08T14:24:29;31.00;7.70
11599;DHT22;5855;48.840;9.188;2023-02-08T14:27:08;30.60;7.70
11599;DHT22;5855;48.840;9.188;2023-02-08T14:29:36;30.40;8.00
11599;DHT22;5855;48.840;9.188;2023-02-08T14:32:04;30.70;8.20
11599;DHT22;5855;48.840;9.188;2023-02-08T14:34:34;30.80;8.00
11599;DHT22;5855;48.840;9.188;2023-02-08T14:37:05;31.00;7.90
11599;DHT22;5855;48.840;9.188;2023-02-08T14:42:59;29.90;7.90
11599;DHT22;5855;48.840;9.188;2023-02-08T14:45:28;29.00;8.70
11599;DHT22;5855;48.840;9.188;2023-02-08T14:48:16;28.70;8.60
11599;DHT22;5855;48.840;9.188;2023-02-08T14:50:54;27.80;9.40
11599;DHT22;5855;48.840;9.188;2023-02-08T14:53:30;26.70;9.80
11599;DHT22;5855;48.840;9.188;2023-02-08T14:56:04;26.40;10.10
11599;DHT22;5855;48.840;9.188;2023-02-08T14:58:35;26.80;10.60
11599;DHT22;5855;48.840;9.188;2023-02-08T15:01:06;26.60;10.00
11599;DHT22;5855;48.840;9.188;2023-02-08T15:03:34;25.90;9.90
11599;DHT22;5855;48.840;9.188;2023-02-08T15:08:54;25.50;10.40
11599;DHT22;5855;48.840;9.188;2023-02-08T15:11:23;25.10;10.70
11599;DHT22;5855;48.840;9.188;2023-02-08T15:13:54;24.60;10.90
11599;DHT22;5855;48.840;9.188;2023-02-08T15:16:26;24.20;11.10
11599;DHT22;5855;48.840;9.188;2023-02-08T15:18:54;23.30;11.50
11599;DHT22;5855;48.840;9.188;2023-02-08T15:21:22;23.00;11.70
11599;DHT22;5855;48.840;9.188;2023-02-08T15:23:59;22.50;11.60
11599;DHT22;5855;48.840;9.188;2023-02-08T15:26:27;22.10;12.10
11599;DHT22;5855;48.840;9.188;2023-02-08T15:28:55;22.50;12.10
11599;DHT22;5855;48.840;9.188;2023-02-08T15:31:26;22.70;11.80
11599;DHT22;5855;48.840;9.188;2023-02-08T15:33:54;22.70;12.00
11599;DHT22;5855;48.840;9.188;2023-02-08T15:36:24;22.60;12.10
11599;DHT22;5855;48.840;9.188;2023-02-08T15:38:54;21.90;12.40
11599;DHT22;5855;48.840;9.188;2023-02-08T15:41:24;21.40;12.70
11599;DHT22;5855;48.840;9.188;2023-02-08T15:44:04;20.30;13.00
11599;DHT22;5855;48.840;9.188;2023-02-08T15:46:38;19.80;13.60
11599;DHT22;5855;48.840;9.188;2023-02-08T15:49:06;19.20;13.90
11599;DHT22;5855;48.840;9.188;2023-02-08T15:51:36;18.50;14.20
11599;DHT22;5855;48.840;9.188;2023-02-08T15:54:03;17.60;15.00
11599;DHT22;5855;48.840;9.188;2023-02-08T15:56:34;16.20;15.80
11599;DHT22;5855;48.840;9.188;2023-02-08T15:59:07;14.70;16.90
11599;DHT22;5855;48.840;9.188;2023-02-08T16:01:38;13.50;18.10
11599;DHT22;5855;48.840;9.188;2023-02-08T16:04:05;12.10;19.60
11599;DHT22;5855;48.840;9.188;2023-02-08T16:06:38;10.70;21.40
11599;DHT22;5855;48.840;9.188;2023-02-08T16:09:06;9.50;23.60
11599;DHT22;5855;48.840;9.188;2023-02-08T16:11:34;8.50;25.30
11599;DHT22;5855;48.840;9.188;2023-02-08T16:14:03;7.70;26.70
11599;DHT22;5855;48.840;9.188;2023-02-08T16:16:39;7.00;28.20
11599;DHT22;5855;48.840;9.188;2023-02-08T16:19:19;6.60;29.20
11599;DHT22;5855;48.840;9.188;2023-02-08T16:21:46;6.10;30.40
11599;DHT22;5855;48.840;9.188;2023-02-08T16:24:22;5.70;31.60
11599;DHT22;5855;48.840;9.188;2023-02-08T16:26:56;5.40;32.90
11599;DHT22;5855;48.840;9.188;2023-02-08T16:29:25;5.00;34.10
11599;DHT22;5855;48.840;9.188;2023-02-08T16:32:00;4.70;36.00